East Kilbride, United Kingdom
Current Conditions -  °F | °C
As of 2:20 PM on Saturday 22 Nov 2014 (Local Time) from EGPF Reporting Station
Overcast Overcast  
Wind Chill: 54°   Ceiling: 4100
Heat Index: 54°   Visibility: 6mi
Dew Point: 50°   Wind: 9mph
Humidity: 88%   Direction: 210°SSW
Pressure: 29.77"   Gusts: NA
Location:  55.77°N, 4.18°W
Report Text: EGPF 221420Z AUTO 21008KT 9999 FEW019/// OVC041/// //////CB 12/10 Q1008
Loading
Personal Weather Stations






























Interactive Weather Map New forecast layout! Learn more

10-Day Weather Forecast

Advertisements
Track Severe Weather on mobile